• Join FlightAware (Why Join?)
  • Login
  • US Flag 
12:25AM EDT


 

Airport Tracker/Info


-or-


 

Live Flight TrackerFlight Track Log ✈ N735MS ✈ 24-May-2013 ✈ MUVT / VTU - KTOA

Flight Track Log - Related Links

Times and Time Zones

All times are in EDT time to prevent confusion due to time zone crossing. See the N735MS flight status page for this flight to view local times or setup timezone preferences in your user account.

Time Position Orientation Groundspeed Altitude Reporting Facility
EDT Latitude Longitude Course Direction KTS MPH feet Rate Location/Type
03:23PM 34.4531 -118.9206 126° Southeast 142 163 7,400  Level Los Angeles Center
03:24PM 34.4322 -118.8856 126° Southeast 141 162 7,500 -60 Climbing Los Angeles Center
03:25PM 34.4086 -118.8481 127° Southeast 141 162 7,300 -360 Descending Los Angeles Center
03:26PM 34.3839 -118.8061 126° Southeast 152 175 6,800 -420 Descending Los Angeles Center
03:27PM 34.3589 -118.7675 128° Southeast 148 170 6,500 -180 Descending Los Angeles Center
03:28PM 34.3322 -118.7242 127° Southeast 135 155 6,500 120 Level Los Angeles Center
03:29PM 34.3108 -118.6872 125° Southeast 134 154 6,800 300 Climbing Los Angeles Center
03:30PM 34.2931 -118.6553 124° Southeast 119 137 7,200 420 Climbing Los Angeles Center
03:31PM 34.2756 -118.6242 124° Southeast 113 130 7,700 480 Climbing Los Angeles Center
03:32PM 34.2578 -118.5972 129° Southeast 104 120 8,300 480 Climbing Los Angeles Center
03:33PM 34.2400 -118.5694 128° Southeast 104 120 8,800 480 Climbing Los Angeles Center
03:34PM 34.2153 -118.5375 133° Southeast 107 123 9,400 300 Climbing Los Angeles Center
03:35PM 34.1908 -118.5147 142° Southeast 110 127 9,500  Climbing Los Angeles Center
03:37PM 34.1667 -118.4808 131° Southeast 128 147 9,500  Level Los Angeles Center
03:38PM 34.1425 -118.4472 131° Southeast 132 152 9,500  Level Los Angeles Center
03:39PM 34.1111 -118.4275 153° Southeast 129 148 9,500  Level Los Angeles Center
03:41PM 34.0333 -118.3833 155° Southeast 130 150 9,600  Climbing Southern California TRACON
03:41PM 34.0167 -118.3667 140° Southeast 138 159 9,500 -300 Descending Southern California TRACON
03:42PM 33.9833 -118.3500 157° South 144 166 9,100 -420 Descending Southern California TRACON
03:43PM 33.9697 -118.3525 189° South 133 153 9,000 -960 Descending Los Angeles Center
03:44PM 33.9389 -118.3356 155° Southeast 126 145 7,900 -1,260 Descending Los Angeles Center
03:45PM 33.9092 -118.3208 158° South 120 138 6,400 -1,500 Descending Los Angeles Center
03:46PM 33.8758 -118.3036 157° South 110 127 4,800 -1,440 Descending Los Angeles Center
03:47PM 33.8436 -118.2856 155° Southeast 107 123 3,200 -1,200 Descending Los Angeles Center
03:48PM 33.8164 -118.2931 193° South 119 137 2,100 -900 Descending Los Angeles Center
03:49PM 33.8144 -118.3311 266° West 128 147 1,400 -300 Descending Los Angeles Center
03:50PM 33.8258 -118.3592 296° West 115 132 1,500 -480 Climbing Los Angeles Center
03:51PM 33.8094 -118.3467 148° Southeast 80 92 500 -720 Descending Los Angeles Center
03:52PM 33.7994 -118.3336 133° Southeast 65 75 100 -420 Descending Los Angeles Center